Hlavní strana
METAR-TAF:

METAR-TAF

Letiště :

Arvidsjaur, Švédsko

zeměpisná šířka: 65-35-25N, zeměpisná délka: 019-16-55E, výška: 379 m

Aktuální stav počasí

Zpráva byla vytvořena před 31 minutami, v 04:50 UTC
Západoseverozápadní vítr 7 kt
Teplota -12°C
Vlhkost vzduchu 78%
Tlak 1018 hPa
Viditelnost 10 km a více

METAR: ESNX 050450Z AUTO 29007KT 9999 NCD M12/M15 Q1018

Čas: 07:21 (05:21 UTC)


TAF: chybějící

Stav a předpovědi počasí z více než 4 000 letišť (zprávy METAR a TAF).

Červené a žluté tečky na mapě představují dostupné meteorologické stanice.

Když kurzor umístíte na tečku, zobrazí se název stanice.

Pak kliknutím zobrazíte stav a předpověď počasí.

Chcete-li změnit mapu, kliknutím na zelené tlačítko se znaménkem +mapu přiblížíte, kliknutím na zelené tlačítko se znaménkem – mapu oddálíte a kliknutím na zelené šipky přejdete na sousední mapy.


METAR-TAF: